This is the latest recevied weather packets stored in our database for station/object SP2WM. If no packets are shown the sender has not sent any weather packets the latest 10 day(s).
| Time | Temp. | Humidity | Pressure | Rain* | Wind** | Luminosity | Snow |
|---|---|---|---|---|---|---|---|
| 1777893624 | 26.11° C | 37% | 1009.1 hPa | 0 mm | - | - | - |
| 1777893022 | 26.11° C | 37% | 1009.2 hPa | 0 mm | - | - | - |
| 1777879833 | 21.11° C | 45% | 1009.5 hPa | 0 mm | - | - | - |
| 1777879238 | 20.56° C | 46% | 1009.6 hPa | 0 mm | - | - | - |
| 1777878638 | 20° C | 46% | 1009.5 hPa | 0 mm | - | - | - |
| 1777871430 | 15.56° C | 57% | 1009.5 hPa | 0 mm | - | - | - |
| 1777870225 | 14.44° C | 61% | 1009.4 hPa | 0 mm | - | - | - |
| 1777869625 | 13.89° C | 63% | 1009.3 hPa | 0 mm | - | - | - |
| 1777869026 | 13.33° C | 63% | 1009.4 hPa | 0 mm | - | - | - |
| 1777868432 | 13.33° C | 64% | 1009.3 hPa | 0 mm | - | - | - |
| 1777867831 | 12.78° C | 65% | 1009.3 hPa | 0 mm | - | - | - |
| 1777867232 | 12.78° C | 66% | 1009.4 hPa | 0 mm | - | - | - |
| 1777866635 | 12.22° C | 66% | 1009.4 hPa | 0 mm | - | - | - |
| 1777866038 | 12.22° C | 66% | 1009.4 hPa | 0 mm | - | - | - |
| 1777865438 | 12.78° C | 65% | 1009.4 hPa | 0 mm | - | - | - |
| 1777864838 | 12.78° C | 65% | 1009.3 hPa | 0 mm | - | - | - |
| 1777864237 | 12.78° C | 64% | 1009.4 hPa | 0 mm | - | - | - |
| 1777863622 | 12.78° C | 64% | 1009.3 hPa | 0 mm | - | - | - |
| 1777863023 | 12.78° C | 63% | 1009.3 hPa | 0 mm | - | - | - |
| 1777862424 | 12.78° C | 63% | 1009.2 hPa | 0 mm | - | - | - |
| 1777861822 | 13.33° C | 62% | 1009.3 hPa | 0 mm | - | - | - |
| 1777861227 | 13.89° C | 61% | 1009.2 hPa | 0 mm | - | - | - |
| 1777860626 | 13.89° C | 61% | 1009.4 hPa | 0 mm | - | - | - |
| 1777860026 | 13.89° C | 60% | 1009.5 hPa | 0 mm | - | - | - |
| 1777859427 | 13.89° C | 60% | 1009.6 hPa | 0 mm | - | - | - |
* Rain latest hour (hover to see other rain measurements)
** Current wind speed in m/s (hover to see current wind gust speed)